sensor_id;sensor_type;location;lat;lon;timestamp;P1;durP1;ratioP1;P2;durP2;ratioP2
20711;SDS011;10517;50.742;4.224;2022-11-04T00:00:19;5.57;;;1.63;;
20711;SDS011;10517;50.742;4.224;2022-11-04T00:02:44;7.47;;;1.80;;
20711;SDS011;10517;50.742;4.224;2022-11-04T00:05:10;6.90;;;1.73;;
20711;SDS011;10517;50.742;4.224;2022-11-04T00:07:35;9.03;;;2.37;;
20711;SDS011;10517;50.742;4.224;2022-11-04T00:10:20;3.13;;;1.87;;
20711;SDS011;10517;50.742;4.224;2022-11-04T00:13:05;4.70;;;1.53;;
20711;SDS011;10517;50.742;4.224;2022-11-04T00:15:34;4.83;;;1.70;;
20711;SDS011;10517;50.742;4.224;2022-11-04T00:18:39;1.23;;;1.20;;
20711;SDS011;10517;50.742;4.224;2022-11-04T00:21:04;5.07;;;1.50;;
20711;SDS011;10517;50.742;4.224;2022-11-04T00:23:49;2.13;;;1.37;;
20711;SDS011;10517;50.742;4.224;2022-11-04T00:26:33;2.20;;;1.63;;
20711;SDS011;10517;50.742;4.224;2022-11-04T00:29:17;11.33;;;1.67;;
20711;SDS011;10517;50.742;4.224;2022-11-04T00:31:42;6.97;;;2.17;;
20711;SDS011;10517;50.742;4.224;2022-11-04T00:34:26;8.57;;;2.07;;
20711;SDS011;10517;50.742;4.224;2022-11-04T00:36:52;2.77;;;1.30;;
20711;SDS011;10517;50.742;4.224;2022-11-04T00:39:17;2.63;;;1.47;;
20711;SDS011;10517;50.742;4.224;2022-11-04T00:41:43;6.13;;;1.77;;
20711;SDS011;10517;50.742;4.224;2022-11-04T00:44:09;6.43;;;1.93;;
20711;SDS011;10517;50.742;4.224;2022-11-04T00:46:34;12.90;;;1.63;;
20711;SDS011;10517;50.742;4.224;2022-11-04T00:49:00;4.27;;;1.60;;
20711;SDS011;10517;50.742;4.224;2022-11-04T00:51:25;2.07;;;1.13;;
20711;SDS011;10517;50.742;4.224;2022-11-04T00:53:51;3.27;;;1.37;;
20711;SDS011;10517;50.742;4.224;2022-11-04T00:56:17;5.63;;;1.40;;
20711;SDS011;10517;50.742;4.224;2022-11-04T00:58:43;1.43;;;1.20;;
20711;SDS011;10517;50.742;4.224;2022-11-04T01:01:09;7.97;;;1.50;;
20711;SDS011;10517;50.742;4.224;2022-11-04T01:03:36;2.17;;;1.93;;
20711;SDS011;10517;50.742;4.224;2022-11-04T01:06:03;6.03;;;1.50;;
20711;SDS011;10517;50.742;4.224;2022-11-04T01:08:29;3.53;;;1.33;;
20711;SDS011;10517;50.742;4.224;2022-11-04T01:10:54;2.43;;;1.60;;
20711;SDS011;10517;50.742;4.224;2022-11-04T01:13:20;3.20;;;1.37;;
20711;SDS011;10517;50.742;4.224;2022-11-04T01:15:46;2.80;;;1.50;;
20711;SDS011;10517;50.742;4.224;2022-11-04T01:18:11;7.17;;;1.50;;
20711;SDS011;10517;50.742;4.224;2022-11-04T01:20:37;3.33;;;1.77;;
20711;SDS011;10517;50.742;4.224;2022-11-04T01:23:03;4.17;;;1.60;;
20711;SDS011;10517;50.742;4.224;2022-11-04T01:25:28;6.40;;;1.20;;
20711;SDS011;10517;50.742;4.224;2022-11-04T01:27:54;5.37;;;2.33;;
20711;SDS011;10517;50.742;4.224;2022-11-04T01:30:20;12.27;;;2.00;;
20711;SDS011;10517;50.742;4.224;2022-11-04T01:32:45;5.50;;;1.63;;
20711;SDS011;10517;50.742;4.224;2022-11-04T01:35:11;6.37;;;1.47;;
20711;SDS011;10517;50.742;4.224;2022-11-04T01:37:36;1.50;;;1.40;;
20711;SDS011;10517;50.742;4.224;2022-11-04T01:40:02;9.40;;;1.40;;
20711;SDS011;10517;50.742;4.224;2022-11-04T01:42:28;7.57;;;1.70;;
20711;SDS011;10517;50.742;4.224;2022-11-04T01:44:55;2.40;;;1.40;;
20711;SDS011;10517;50.742;4.224;2022-11-04T01:47:27;7.90;;;1.43;;
20711;SDS011;10517;50.742;4.224;2022-11-04T01:50:13;2.47;;;1.13;;
20711;SDS011;10517;50.742;4.224;2022-11-04T01:52:47;3.27;;;1.80;;
20711;SDS011;10517;50.742;4.224;2022-11-04T01:55:17;5.20;;;1.27;;
20711;SDS011;10517;50.742;4.224;2022-11-04T01:57:47;9.33;;;1.70;;
20711;SDS011;10517;50.742;4.224;2022-11-04T02:00:15;4.23;;;1.47;;
20711;SDS011;10517;50.742;4.224;2022-11-04T02:02:53;6.93;;;1.83;;
20711;SDS011;10517;50.742;4.224;2022-11-04T02:05:39;6.00;;;2.80;;
20711;SDS011;10517;50.742;4.224;2022-11-04T02:08:05;2.70;;;1.73;;
20711;SDS011;10517;50.742;4.224;2022-11-04T02:10:33;4.20;;;1.43;;
20711;SDS011;10517;50.742;4.224;2022-11-04T02:13:00;9.83;;;2.50;;
20711;SDS011;10517;50.742;4.224;2022-11-04T02:15:30;7.73;;;1.80;;
20711;SDS011;10517;50.742;4.224;2022-11-04T02:34:24;8.47;;;2.17;;
20711;SDS011;10517;50.742;4.224;2022-11-04T02:37:08;9.40;;;2.47;;
20711;SDS011;10517;50.742;4.224;2022-11-04T02:39:55;5.80;;;2.67;;
20711;SDS011;10517;50.742;4.224;2022-11-04T02:47:39;3.23;;;2.30;;
20711;SDS011;10517;50.742;4.224;2022-11-04T02:53:17;9.83;;;2.53;;
20711;SDS011;10517;50.742;4.224;2022-11-04T02:55:52;2.67;;;2.47;;
20711;SDS011;10517;50.742;4.224;2022-11-04T02:58:22;8.43;;;2.60;;
20711;SDS011;10517;50.742;4.224;2022-11-04T03:00:54;9.47;;;2.83;;
20711;SDS011;10517;50.742;4.224;2022-11-04T03:03:22;8.00;;;2.63;;
20711;SDS011;10517;50.742;4.224;2022-11-04T03:05:51;6.63;;;2.20;;
20711;SDS011;10517;50.742;4.224;2022-11-04T03:08:30;8.33;;;3.17;;
20711;SDS011;10517;50.742;4.224;2022-11-04T03:11:06;6.77;;;2.63;;
20711;SDS011;10517;50.742;4.224;2022-11-04T03:13:41;9.33;;;2.63;;
20711;SDS011;10517;50.742;4.224;2022-11-04T03:16:18;9.40;;;2.90;;
20711;SDS011;10517;50.742;4.224;2022-11-04T03:21:38;4.57;;;2.23;;
20711;SDS011;10517;50.742;4.224;2022-11-04T03:24:09;7.17;;;3.30;;
20711;SDS011;10517;50.742;4.224;2022-11-04T03:26:40;5.57;;;2.00;;
20711;SDS011;10517;50.742;4.224;2022-11-04T03:29:28;3.40;;;2.30;;
20711;SDS011;10517;50.742;4.224;2022-11-04T03:32:10;5.73;;;2.73;;
20711;SDS011;10517;50.742;4.224;2022-11-04T03:34:42;5.10;;;2.03;;
20711;SDS011;10517;50.742;4.224;2022-11-04T03:37:08;10.13;;;2.00;;
20711;SDS011;10517;50.742;4.224;2022-11-04T03:39:34;5.90;;;2.30;;
20711;SDS011;10517;50.742;4.224;2022-11-04T03:42:01;6.50;;;2.57;;
20711;SDS011;10517;50.742;4.224;2022-11-04T03:44:54;3.50;;;1.70;;
20711;SDS011;10517;50.742;4.224;2022-11-04T03:47:21;4.73;;;1.90;;
20711;SDS011;10517;50.742;4.224;2022-11-04T03:49:53;3.83;;;2.27;;
20711;SDS011;10517;50.742;4.224;2022-11-04T03:52:26;5.50;;;2.00;;
20711;SDS011;10517;50.742;4.224;2022-11-04T03:54:52;5.00;;;1.90;;
20711;SDS011;10517;50.742;4.224;2022-11-04T04:00:11;6.83;;;2.03;;
20711;SDS011;10517;50.742;4.224;2022-11-04T04:05:27;4.97;;;1.90;;
20711;SDS011;10517;50.742;4.224;2022-11-04T04:08:14;4.77;;;1.63;;
20711;SDS011;10517;50.742;4.224;2022-11-04T04:16:09;2.10;;;1.00;;
20711;SDS011;10517;50.742;4.224;2022-11-04T04:18:58;5.83;;;1.90;;
20711;SDS011;10517;50.742;4.224;2022-11-04T04:21:29;4.43;;;1.83;;
20711;SDS011;10517;50.742;4.224;2022-11-04T04:23:59;9.53;;;1.93;;
20711;SDS011;10517;50.742;4.224;2022-11-04T04:26:48;10.20;;;1.97;;
20711;SDS011;10517;50.742;4.224;2022-11-04T04:29:33;4.83;;;1.60;;
20711;SDS011;10517;50.742;4.224;2022-11-04T04:32:00;6.97;;;1.60;;
20711;SDS011;10517;50.742;4.224;2022-11-04T04:34:30;1.90;;;1.23;;
20711;SDS011;10517;50.742;4.224;2022-11-04T04:37:01;5.23;;;1.90;;
20711;SDS011;10517;50.742;4.224;2022-11-04T04:39:30;6.40;;;2.37;;
20711;SDS011;10517;50.742;4.224;2022-11-04T04:42:33;7.10;;;1.60;;
20711;SDS011;10517;50.742;4.224;2022-11-04T04:45:24;7.00;;;2.00;;
20711;SDS011;10517;50.742;4.224;2022-11-04T04:47:51;4.70;;;1.63;;
20711;SDS011;10517;50.742;4.224;2022-11-04T04:50:18;10.07;;;2.17;;
20711;SDS011;10517;50.742;4.224;2022-11-04T04:52:46;6.17;;;1.57;;
20711;SDS011;10517;50.742;4.224;2022-11-04T04:55:14;5.03;;;1.50;;
20711;SDS011;10517;50.742;4.224;2022-11-04T04:57:40;6.03;;;1.87;;
20711;SDS011;10517;50.742;4.224;2022-11-04T05:00:07;6.63;;;1.60;;
20711;SDS011;10517;50.742;4.224;2022-11-04T05:02:35;13.53;;;2.00;;
20711;SDS011;10517;50.742;4.224;2022-11-04T05:05:01;3.43;;;1.50;;
20711;SDS011;10517;50.742;4.224;2022-11-04T05:07:27;2.90;;;1.30;;
20711;SDS011;10517;50.742;4.224;2022-11-04T05:09:52;5.57;;;1.53;;
20711;SDS011;10517;50.742;4.224;2022-11-04T05:12:18;8.60;;;2.27;;
20711;SDS011;10517;50.742;4.224;2022-11-04T05:14:43;6.57;;;1.40;;
20711;SDS011;10517;50.742;4.224;2022-11-04T05:17:09;10.03;;;1.40;;
20711;SDS011;10517;50.742;4.224;2022-11-04T05:19:34;5.07;;;1.30;;
20711;SDS011;10517;50.742;4.224;2022-11-04T05:22:00;6.23;;;1.87;;
20711;SDS011;10517;50.742;4.224;2022-11-04T05:24:26;6.50;;;1.70;;
20711;SDS011;10517;50.742;4.224;2022-11-04T05:26:52;3.33;;;1.43;;
20711;SDS011;10517;50.742;4.224;2022-11-04T05:29:17;5.17;;;1.83;;
20711;SDS011;10517;50.742;4.224;2022-11-04T05:31:43;3.17;;;1.20;;
20711;SDS011;10517;50.742;4.224;2022-11-04T05:34:09;5.23;;;2.10;;
20711;SDS011;10517;50.742;4.224;2022-11-04T05:36:36;6.87;;;1.97;;
20711;SDS011;10517;50.742;4.224;2022-11-04T05:39:02;6.40;;;1.43;;
20711;SDS011;10517;50.742;4.224;2022-11-04T05:41:28;4.37;;;1.57;;
20711;SDS011;10517;50.742;4.224;2022-11-04T05:43:57;7.40;;;1.57;;
20711;SDS011;10517;50.742;4.224;2022-11-04T05:46:25;12.70;;;2.10;;
20711;SDS011;10517;50.742;4.224;2022-11-04T05:48:51;4.47;;;1.93;;
20711;SDS011;10517;50.742;4.224;2022-11-04T05:51:18;6.97;;;1.43;;
20711;SDS011;10517;50.742;4.224;2022-11-04T05:53:46;4.57;;;1.60;;
20711;SDS011;10517;50.742;4.224;2022-11-04T05:56:11;1.53;;;1.43;;
20711;SDS011;10517;50.742;4.224;2022-11-04T05:58:37;4.23;;;1.37;;
20711;SDS011;10517;50.742;4.224;2022-11-04T06:03:47;6.70;;;1.17;;
20711;SDS011;10517;50.742;4.224;2022-11-04T06:06:12;7.43;;;2.03;;
20711;SDS011;10517;50.742;4.224;2022-11-04T06:08:38;4.60;;;1.20;;
20711;SDS011;10517;50.742;4.224;2022-11-04T06:11:03;6.33;;;1.47;;
20711;SDS011;10517;50.742;4.224;2022-11-04T06:13:29;4.73;;;2.37;;
20711;SDS011;10517;50.742;4.224;2022-11-04T06:15:55;5.50;;;1.23;;
20711;SDS011;10517;50.742;4.224;2022-11-04T06:18:21;3.77;;;1.37;;
20711;SDS011;10517;50.742;4.224;2022-11-04T06:20:46;1.77;;;1.53;;
20711;SDS011;10517;50.742;4.224;2022-11-04T06:23:12;8.20;;;2.03;;
20711;SDS011;10517;50.742;4.224;2022-11-04T06:25:37;4.83;;;1.60;;
20711;SDS011;10517;50.742;4.224;2022-11-04T06:28:03;7.57;;;1.92;;
20711;SDS011;10517;50.742;4.224;2022-11-04T06:30:28;4.72;;;1.65;;
20711;SDS011;10517;50.742;4.224;2022-11-04T06:32:54;6.57;;;2.20;;
20711;SDS011;10517;50.742;4.224;2022-11-04T06:35:20;8.32;;;1.73;;
20711;SDS011;10517;50.742;4.224;2022-11-04T06:37:45;2.70;;;1.80;;
20711;SDS011;10517;50.742;4.224;2022-11-04T06:40:11;3.42;;;1.27;;
20711;SDS011;10517;50.742;4.224;2022-11-04T06:42:36;12.88;;;1.63;;
20711;SDS011;10517;50.742;4.224;2022-11-04T06:45:02;5.30;;;1.33;;
20711;SDS011;10517;50.742;4.224;2022-11-04T06:47:28;6.78;;;1.77;;
20711;SDS011;10517;50.742;4.224;2022-11-04T06:49:54;4.45;;;1.80;;
20711;SDS011;10517;50.742;4.224;2022-11-04T06:52:19;5.83;;;1.90;;
20711;SDS011;10517;50.742;4.224;2022-11-04T06:54:45;3.78;;;1.27;;
20711;SDS011;10517;50.742;4.224;2022-11-04T06:57:12;3.30;;;1.15;;
20711;SDS011;10517;50.742;4.224;2022-11-04T06:59:37;2.15;;;1.33;;
20711;SDS011;10517;50.742;4.224;2022-11-04T07:02:03;8.52;;;1.45;;
20711;SDS011;10517;50.742;4.224;2022-11-04T07:04:29;7.78;;;1.30;;
20711;SDS011;10517;50.742;4.224;2022-11-04T07:06:55;4.00;;;1.60;;
20711;SDS011;10517;50.742;4.224;2022-11-04T07:09:20;2.40;;;1.33;;
20711;SDS011;10517;50.742;4.224;2022-11-04T07:11:46;1.50;;;1.40;;
20711;SDS011;10517;50.742;4.224;2022-11-04T07:14:12;3.17;;;1.35;;
20711;SDS011;10517;50.742;4.224;2022-11-04T07:16:38;3.50;;;1.20;;
20711;SDS011;10517;50.742;4.224;2022-11-04T07:19:04;4.65;;;1.98;;
20711;SDS011;10517;50.742;4.224;2022-11-04T07:21:30;2.40;;;1.50;;
20711;SDS011;10517;50.742;4.224;2022-11-04T07:23:56;3.42;;;1.85;;
20711;SDS011;10517;50.742;4.224;2022-11-04T07:26:21;5.73;;;1.60;;
20711;SDS011;10517;50.742;4.224;2022-11-04T07:28:47;10.30;;;2.03;;
20711;SDS011;10517;50.742;4.224;2022-11-04T07:31:13;4.82;;;1.85;;
20711;SDS011;10517;50.742;4.224;2022-11-04T07:33:39;12.30;;;2.00;;
20711;SDS011;10517;50.742;4.224;2022-11-04T07:36:05;2.92;;;1.38;;
20711;SDS011;10517;50.742;4.224;2022-11-04T07:38:32;5.30;;;1.80;;
20711;SDS011;10517;50.742;4.224;2022-11-04T07:40:58;4.40;;;1.65;;
20711;SDS011;10517;50.742;4.224;2022-11-04T07:43:24;13.00;;;2.50;;
20711;SDS011;10517;50.742;4.224;2022-11-04T07:46:01;4.35;;;1.85;;
20711;SDS011;10517;50.742;4.224;2022-11-04T07:48:29;9.13;;;1.97;;
20711;SDS011;10517;50.742;4.224;2022-11-04T07:50:56;6.33;;;1.73;;
20711;SDS011;10517;50.742;4.224;2022-11-04T07:53:23;4.72;;;1.95;;
20711;SDS011;10517;50.742;4.224;2022-11-04T07:55:49;3.88;;;2.40;;
20711;SDS011;10517;50.742;4.224;2022-11-04T07:58:16;3.08;;;2.08;;
20711;SDS011;10517;50.742;4.224;2022-11-04T08:00:45;7.68;;;2.13;;
20711;SDS011;10517;50.742;4.224;2022-11-04T08:03:11;5.67;;;2.10;;
20711;SDS011;10517;50.742;4.224;2022-11-04T08:05:36;3.45;;;2.00;;
20711;SDS011;10517;50.742;4.224;2022-11-04T08:08:02;5.23;;;1.97;;
20711;SDS011;10517;50.742;4.224;2022-11-04T08:10:28;5.57;;;1.92;;
20711;SDS011;10517;50.742;4.224;2022-11-04T08:12:54;10.18;;;2.28;;
20711;SDS011;10517;50.742;4.224;2022-11-04T08:15:19;4.25;;;1.65;;
20711;SDS011;10517;50.742;4.224;2022-11-04T08:17:45;2.40;;;1.60;;
20711;SDS011;10517;50.742;4.224;2022-11-04T08:20:10;6.95;;;1.90;;
20711;SDS011;10517;50.742;4.224;2022-11-04T08:22:36;3.85;;;2.30;;
20711;SDS011;10517;50.742;4.224;2022-11-04T08:25:03;6.03;;;1.85;;
20711;SDS011;10517;50.742;4.224;2022-11-04T08:27:28;4.93;;;1.70;;
20711;SDS011;10517;50.742;4.224;2022-11-04T08:29:54;4.30;;;1.70;;
20711;SDS011;10517;50.742;4.224;2022-11-04T08:32:20;2.42;;;1.88;;
20711;SDS011;10517;50.742;4.224;2022-11-04T08:34:45;9.23;;;2.08;;
20711;SDS011;10517;50.742;4.224;2022-11-04T08:37:14;7.47;;;1.83;;
20711;SDS011;10517;50.742;4.224;2022-11-04T08:39:41;5.80;;;1.90;;
20711;SDS011;10517;50.742;4.224;2022-11-04T08:42:07;8.90;;;1.95;;
20711;SDS011;10517;50.742;4.224;2022-11-04T08:44:33;2.25;;;1.85;;
20711;SDS011;10517;50.742;4.224;2022-11-04T08:46:58;5.10;;;1.50;;
20711;SDS011;10517;50.742;4.224;2022-11-04T08:49:24;4.32;;;1.63;;
20711;SDS011;10517;50.742;4.224;2022-11-04T08:51:50;5.70;;;2.55;;
20711;SDS011;10517;50.742;4.224;2022-11-04T08:54:24;6.63;;;1.70;;
20711;SDS011;10517;50.742;4.224;2022-11-04T08:56:50;5.53;;;1.60;;
20711;SDS011;10517;50.742;4.224;2022-11-04T08:59:16;3.47;;;1.73;;
20711;SDS011;10517;50.742;4.224;2022-11-04T09:01:42;3.40;;;1.42;;
20711;SDS011;10517;50.742;4.224;2022-11-04T09:04:09;8.40;;;2.92;;
20711;SDS011;10517;50.742;4.224;2022-11-04T09:06:37;8.48;;;2.00;;
20711;SDS011;10517;50.742;4.224;2022-11-04T09:09:06;4.38;;;1.77;;
20711;SDS011;10517;50.742;4.224;2022-11-04T09:11:33;4.50;;;1.45;;
20711;SDS011;10517;50.742;4.224;2022-11-04T09:14:02;4.93;;;1.95;;
20711;SDS011;10517;50.742;4.224;2022-11-04T09:16:28;8.73;;;2.47;;
20711;SDS011;10517;50.742;4.224;2022-11-04T09:18:56;5.65;;;2.10;;
20711;SDS011;10517;50.742;4.224;2022-11-04T09:21:22;8.55;;;2.85;;
20711;SDS011;10517;50.742;4.224;2022-11-04T09:23:48;2.58;;;1.60;;
20711;SDS011;10517;50.742;4.224;2022-11-04T09:26:14;11.48;;;1.75;;
20711;SDS011;10517;50.742;4.224;2022-11-04T09:28:40;6.78;;;1.60;;
20711;SDS011;10517;50.742;4.224;2022-11-04T09:31:07;2.67;;;1.92;;
20711;SDS011;10517;50.742;4.224;2022-11-04T09:33:40;8.23;;;3.97;;
20711;SDS011;10517;50.742;4.224;2022-11-04T09:36:06;7.95;;;2.28;;
20711;SDS011;10517;50.742;4.224;2022-11-04T09:38:34;6.95;;;2.13;;
20711;SDS011;10517;50.742;4.224;2022-11-04T09:41:06;3.63;;;1.45;;
20711;SDS011;10517;50.742;4.224;2022-11-04T09:43:48;5.22;;;1.77;;
20711;SDS011;10517;50.742;4.224;2022-11-04T09:46:22;4.97;;;1.67;;
20711;SDS011;10517;50.742;4.224;2022-11-04T09:48:52;3.60;;;1.60;;
20711;SDS011;10517;50.742;4.224;2022-11-04T09:51:20;9.45;;;2.03;;
20711;SDS011;10517;50.742;4.224;2022-11-04T09:53:50;1.80;;;1.52;;
20711;SDS011;10517;50.742;4.224;2022-11-04T09:56:32;4.82;;;2.03;;
20711;SDS011;10517;50.742;4.224;2022-11-04T09:59:02;10.27;;;1.80;;
20711;SDS011;10517;50.742;4.224;2022-11-04T10:01:31;8.98;;;2.50;;
20711;SDS011;10517;50.742;4.224;2022-11-04T10:04:26;5.22;;;3.13;;
20711;SDS011;10517;50.742;4.224;2022-11-04T10:07:12;6.32;;;2.67;;
20711;SDS011;10517;50.742;4.224;2022-11-04T10:10:04;6.75;;;1.92;;
20711;SDS011;10517;50.742;4.224;2022-11-04T10:12:56;5.07;;;2.05;;
20711;SDS011;10517;50.742;4.224;2022-11-04T10:21:32;6.68;;;2.47;;
20711;SDS011;10517;50.742;4.224;2022-11-04T10:24:23;5.00;;;2.15;;
20711;SDS011;10517;50.742;4.224;2022-11-04T10:27:02;3.30;;;2.17;;
20711;SDS011;10517;50.742;4.224;2022-11-04T10:29:30;10.10;;;1.65;;
20711;SDS011;10517;50.742;4.224;2022-11-04T10:31:59;3.92;;;2.15;;
20711;SDS011;10517;50.742;4.224;2022-11-04T10:34:33;6.85;;;2.08;;
20711;SDS011;10517;50.742;4.224;2022-11-04T10:37:06;6.07;;;2.28;;
20711;SDS011;10517;50.742;4.224;2022-11-04T10:39:36;4.80;;;1.85;;
20711;SDS011;10517;50.742;4.224;2022-11-04T10:42:09;6.93;;;2.63;;
20711;SDS011;10517;50.742;4.224;2022-11-04T10:44:40;5.28;;;2.33;;
20711;SDS011;10517;50.742;4.224;2022-11-04T10:50:26;6.18;;;2.38;;
20711;SDS011;10517;50.742;4.224;2022-11-04T10:52:54;10.77;;;2.50;;
20711;SDS011;10517;50.742;4.224;2022-11-04T10:57:59;12.27;;;2.65;;
20711;SDS011;10517;50.742;4.224;2022-11-04T11:00:32;6.63;;;3.05;;
20711;SDS011;10517;50.742;4.224;2022-11-04T11:06:10;9.98;;;3.92;;
20711;SDS011;10517;50.742;4.224;2022-11-04T11:08:58;7.72;;;2.65;;
20711;SDS011;10517;50.742;4.224;2022-11-04T11:11:44;4.95;;;2.70;;
20711;SDS011;10517;50.742;4.224;2022-11-04T11:16:53;12.23;;;2.70;;
20711;SDS011;10517;50.742;4.224;2022-11-04T11:19:21;11.80;;;3.28;;
20711;SDS011;10517;50.742;4.224;2022-11-04T11:21:50;11.60;;;3.58;;
20711;SDS011;10517;50.742;4.224;2022-11-04T11:26:48;8.70;;;2.97;;
20711;SDS011;10517;50.742;4.224;2022-11-04T11:29:26;6.38;;;3.35;;
20711;SDS011;10517;50.742;4.224;2022-11-04T11:31:55;6.50;;;2.95;;
20711;SDS011;10517;50.742;4.224;2022-11-04T11:34:24;9.57;;;4.57;;
20711;SDS011;10517;50.742;4.224;2022-11-04T11:37:01;8.35;;;3.53;;
20711;SDS011;10517;50.742;4.224;2022-11-04T11:39:29;6.30;;;3.60;;
20711;SDS011;10517;50.742;4.224;2022-11-04T11:42:00;8.88;;;3.97;;
20711;SDS011;10517;50.742;4.224;2022-11-04T11:44:31;7.43;;;3.92;;
20711;SDS011;10517;50.742;4.224;2022-11-04T11:47:03;10.48;;;4.40;;
20711;SDS011;10517;50.742;4.224;2022-11-04T11:49:34;6.68;;;3.72;;
20711;SDS011;10517;50.742;4.224;2022-11-04T11:54:52;11.32;;;4.60;;
20711;SDS011;10517;50.742;4.224;2022-11-04T11:57:28;6.80;;;3.83;;
20711;SDS011;10517;50.742;4.224;2022-11-04T12:00:05;9.50;;;4.20;;
20711;SDS011;10517;50.742;4.224;2022-11-04T12:02:57;5.60;;;3.28;;
20711;SDS011;10517;50.742;4.224;2022-11-04T12:05:53;9.85;;;3.92;;
20711;SDS011;10517;50.742;4.224;2022-11-04T12:08:56;4.93;;;3.50;;
20711;SDS011;10517;50.742;4.224;2022-11-04T12:14:08;5.35;;;3.70;;
20711;SDS011;10517;50.742;4.224;2022-11-04T12:16:42;6.90;;;3.53;;
20711;SDS011;10517;50.742;4.224;2022-11-04T12:22:16;8.00;;;4.22;;
20711;SDS011;10517;50.742;4.224;2022-11-04T12:25:10;7.22;;;3.30;;
20711;SDS011;10517;50.742;4.224;2022-11-04T12:30:34;4.63;;;3.65;;
20711;SDS011;10517;50.742;4.224;2022-11-04T12:33:31;6.43;;;3.20;;
20711;SDS011;10517;50.742;4.224;2022-11-04T12:36:24;4.68;;;2.97;;
20711;SDS011;10517;50.742;4.224;2022-11-04T12:39:17;7.22;;;3.30;;
20711;SDS011;10517;50.742;4.224;2022-11-04T12:42:06;4.68;;;3.40;;
20711;SDS011;10517;50.742;4.224;2022-11-04T12:44:44;8.68;;;3.05;;
20711;SDS011;10517;50.742;4.224;2022-11-04T12:47:45;5.97;;;3.28;;
20711;SDS011;10517;50.742;4.224;2022-11-04T12:53:18;3.20;;;2.58;;
20711;SDS011;10517;50.742;4.224;2022-11-04T12:58:38;5.22;;;2.63;;
20711;SDS011;10517;50.742;4.224;2022-11-04T13:01:24;3.13;;;2.45;;
20711;SDS011;10517;50.742;4.224;2022-11-04T13:04:11;3.13;;;2.45;;
20711;SDS011;10517;50.742;4.224;2022-11-04T13:06:42;3.53;;;2.80;;
20711;SDS011;10517;50.742;4.224;2022-11-04T13:09:21;5.63;;;2.63;;
20711;SDS011;10517;50.742;4.224;2022-11-04T13:14:45;4.38;;;2.75;;
20711;SDS011;10517;50.742;4.224;2022-11-04T13:17:21;4.03;;;2.42;;
20711;SDS011;10517;50.742;4.224;2022-11-04T13:19:52;5.90;;;2.75;;
20711;SDS011;10517;50.742;4.224;2022-11-04T13:22:43;5.22;;;3.10;;
20711;SDS011;10517;50.742;4.224;2022-11-04T13:27:45;6.72;;;3.13;;
20711;SDS011;10517;50.742;4.224;2022-11-04T13:38:53;4.30;;;2.53;;
20711;SDS011;10517;50.742;4.224;2022-11-04T13:43:56;7.13;;;3.80;;
20711;SDS011;10517;50.742;4.224;2022-11-04T13:46:28;8.30;;;4.32;;
20711;SDS011;10517;50.742;4.224;2022-11-04T13:48:58;7.78;;;3.67;;
20711;SDS011;10517;50.742;4.224;2022-11-04T13:51:40;7.20;;;3.38;;
20711;SDS011;10517;50.742;4.224;2022-11-04T13:57:02;5.28;;;3.17;;
20711;SDS011;10517;50.742;4.224;2022-11-04T13:59:29;7.63;;;3.85;;
20711;SDS011;10517;50.742;4.224;2022-11-04T14:02:21;6.45;;;4.10;;
20711;SDS011;10517;50.742;4.224;2022-11-04T14:04:45;8.27;;;4.30;;
20711;SDS011;10517;50.742;4.224;2022-11-04T14:07:15;10.60;;;4.55;;
20711;SDS011;10517;50.742;4.224;2022-11-04T14:14:33;8.50;;;4.45;;
20711;SDS011;10517;50.742;4.224;2022-11-04T14:16:59;8.73;;;5.07;;
20711;SDS011;10517;50.742;4.224;2022-11-04T14:22:19;5.97;;;3.50;;
20711;SDS011;10517;50.742;4.224;2022-11-04T14:24:52;7.35;;;3.13;;
20711;SDS011;10517;50.742;4.224;2022-11-04T14:27:23;9.65;;;3.22;;
20711;SDS011;10517;50.742;4.224;2022-11-04T14:29:54;11.77;;;3.75;;
20711;SDS011;10517;50.742;4.224;2022-11-04T14:32:22;4.45;;;3.08;;
20711;SDS011;10517;50.742;4.224;2022-11-04T14:35:01;1.90;;;1.30;;
20711;SDS011;10517;50.742;4.224;2022-11-04T14:37:31;0.88;;;0.80;;
20711;SDS011;10517;50.742;4.224;2022-11-04T14:39:59;2.67;;;2.47;;
20711;SDS011;10517;50.742;4.224;2022-11-04T14:42:45;3.25;;;3.08;;
20711;SDS011;10517;50.742;4.224;2022-11-04T14:45:18;2.20;;;2.10;;
20711;SDS011;10517;50.742;4.224;2022-11-04T14:47:47;1.75;;;1.70;;
20711;SDS011;10517;50.742;4.224;2022-11-04T14:50:17;3.13;;;1.30;;
20711;SDS011;10517;50.742;4.224;2022-11-04T14:52:55;5.13;;;1.40;;
20711;SDS011;10517;50.742;4.224;2022-11-04T14:55:28;1.40;;;1.10;;
20711;SDS011;10517;50.742;4.224;2022-11-04T14:58:22;0.87;;;0.80;;
20711;SDS011;10517;50.742;4.224;2022-11-04T15:00:57;3.47;;;1.10;;
20711;SDS011;10517;50.742;4.224;2022-11-04T15:03:25;3.80;;;0.60;;
20711;SDS011;10517;50.742;4.224;2022-11-04T15:06:04;1.70;;;1.20;;
20711;SDS011;10517;50.742;4.224;2022-11-04T15:13:37;3.60;;;2.00;;
20711;SDS011;10517;50.742;4.224;2022-11-04T15:16:15;2.70;;;1.40;;
20711;SDS011;10517;50.742;4.224;2022-11-04T15:18:47;2.30;;;1.17;;
20711;SDS011;10517;50.742;4.224;2022-11-04T15:21:15;3.63;;;1.80;;
20711;SDS011;10517;50.742;4.224;2022-11-04T15:23:48;2.00;;;1.80;;
20711;SDS011;10517;50.742;4.224;2022-11-04T15:26:20;4.70;;;1.80;;
20711;SDS011;10517;50.742;4.224;2022-11-04T15:28:53;1.33;;;1.10;;
20711;SDS011;10517;50.742;4.224;2022-11-04T15:31:25;6.47;;;1.20;;
20711;SDS011;10517;50.742;4.224;2022-11-04T15:34:00;2.90;;;1.37;;
20711;SDS011;10517;50.742;4.224;2022-11-04T15:36:28;2.23;;;1.30;;
20711;SDS011;10517;50.742;4.224;2022-11-04T15:41:36;1.00;;;0.90;;
20711;SDS011;10517;50.742;4.224;2022-11-04T15:44:23;3.57;;;0.93;;
20711;SDS011;10517;50.742;4.224;2022-11-04T15:47:36;1.10;;;1.10;;
20711;SDS011;10517;50.742;4.224;2022-11-04T15:49:43;3.03;;;1.60;;
20711;SDS011;10517;50.742;4.224;2022-11-04T15:52:23;3.13;;;1.33;;
20711;SDS011;10517;50.742;4.224;2022-11-04T15:54:54;4.33;;;1.60;;
20711;SDS011;10517;50.742;4.224;2022-11-04T15:57:28;7.80;;;2.80;;
20711;SDS011;10517;50.742;4.224;2022-11-04T16:00:02;3.20;;;1.60;;
20711;SDS011;10517;50.742;4.224;2022-11-04T16:02:43;1.60;;;1.50;;
20711;SDS011;10517;50.742;4.224;2022-11-04T16:07:47;1.97;;;1.53;;
20711;SDS011;10517;50.742;4.224;2022-11-04T16:12:59;1.40;;;1.20;;
20711;SDS011;10517;50.742;4.224;2022-11-04T16:15:42;2.47;;;1.40;;
20711;SDS011;10517;50.742;4.224;2022-11-04T16:18:42;1.93;;;1.23;;
20711;SDS011;10517;50.742;4.224;2022-11-04T16:21:09;1.53;;;1.00;;
20711;SDS011;10517;50.742;4.224;2022-11-04T16:23:58;2.23;;;1.33;;
20711;SDS011;10517;50.742;4.224;2022-11-04T16:26:42;1.40;;;1.17;;
20711;SDS011;10517;50.742;4.224;2022-11-04T16:29:14;3.33;;;1.50;;
20711;SDS011;10517;50.742;4.224;2022-11-04T16:34:54;3.40;;;1.37;;
20711;SDS011;10517;50.742;4.224;2022-11-04T16:37:22;2.10;;;1.20;;
20711;SDS011;10517;50.742;4.224;2022-11-04T16:39:49;0.90;;;0.90;;
20711;SDS011;10517;50.742;4.224;2022-11-04T16:42:15;2.73;;;1.67;;
20711;SDS011;10517;50.742;4.224;2022-11-04T16:44:45;4.27;;;1.70;;
20711;SDS011;10517;50.742;4.224;2022-11-04T16:47:12;5.07;;;1.53;;
20711;SDS011;10517;50.742;4.224;2022-11-04T16:49:38;2.17;;;1.43;;
20711;SDS011;10517;50.742;4.224;2022-11-04T16:52:04;1.97;;;1.80;;
20711;SDS011;10517;50.742;4.224;2022-11-04T16:54:37;2.40;;;1.50;;
20711;SDS011;10517;50.742;4.224;2022-11-04T16:57:02;3.37;;;1.97;;
20711;SDS011;10517;50.742;4.224;2022-11-04T16:59:30;1.83;;;1.63;;
20711;SDS011;10517;50.742;4.224;2022-11-04T17:01:56;6.57;;;1.90;;
20711;SDS011;10517;50.742;4.224;2022-11-04T17:04:22;2.67;;;1.90;;
20711;SDS011;10517;50.742;4.224;2022-11-04T17:06:47;2.40;;;2.20;;
20711;SDS011;10517;50.742;4.224;2022-11-04T17:09:16;3.20;;;2.40;;
20711;SDS011;10517;50.742;4.224;2022-11-04T17:11:45;5.20;;;2.20;;